createdAt,value
2018-04-22T00:01:58.853Z,87.30
2018-04-22T00:04:26.653Z,87.50
2018-04-22T00:06:54.486Z,87.70
2018-04-22T00:09:22.372Z,87.90
2018-04-22T00:11:50.535Z,88.00
2018-04-22T00:14:18.245Z,88.30
2018-04-22T00:16:46.961Z,88.60
2018-04-22T00:19:14.964Z,88.60
2018-04-22T00:21:43.833Z,88.90
2018-04-22T00:24:11.876Z,89.00
2018-04-22T00:26:39.808Z,88.90
2018-04-22T00:29:11.244Z,88.90
2018-04-22T00:31:41.025Z,88.90
2018-04-22T00:34:09.003Z,89.00
2018-04-22T00:36:38.655Z,89.30
2018-04-22T00:39:12.831Z,89.80
2018-04-22T00:41:43.816Z,89.10
2018-04-22T00:44:15.914Z,87.90
2018-04-22T00:46:43.947Z,87.70
2018-04-22T00:49:11.747Z,87.20
2018-04-22T00:51:40.269Z,86.30
2018-04-22T00:54:20.538Z,86.30
2018-04-22T00:56:48.411Z,86.00
2018-04-22T00:59:16.102Z,85.50
2018-04-22T01:01:43.820Z,85.30
2018-04-22T01:04:11.560Z,85.00
2018-04-22T01:06:39.261Z,84.80
2018-04-22T01:09:07.033Z,84.70
2018-04-22T01:11:34.795Z,84.50
2018-04-22T01:14:02.644Z,84.40
2018-04-22T01:16:30.367Z,84.50
2018-04-22T01:18:58.149Z,84.60
2018-04-22T01:21:25.909Z,84.70
2018-04-22T01:23:53.667Z,85.00
2018-04-22T01:26:21.405Z,85.10
2018-04-22T01:28:49.122Z,85.50
2018-04-22T01:31:17.692Z,85.90
2018-04-22T01:33:45.418Z,86.00
2018-04-22T01:36:13.203Z,86.50
2018-04-22T01:38:40.967Z,86.70
2018-04-22T01:41:08.854Z,86.50
2018-04-22T01:43:38.133Z,86.60
2018-04-22T01:46:05.929Z,87.10
2018-04-22T01:51:06.937Z,88.00
2018-04-22T01:53:35.613Z,88.70
2018-04-22T01:56:04.484Z,89.00
2018-04-22T01:58:32.208Z,89.00
2018-04-22T02:00:59.913Z,89.10
2018-04-22T02:03:27.665Z,89.00
2018-04-22T02:05:55.392Z,89.00
2018-04-22T02:08:23.097Z,89.10
2018-04-22T02:10:51.433Z,89.20
2018-04-22T02:13:19.192Z,89.20
2018-04-22T02:15:47.757Z,89.30
2018-04-22T02:18:16.265Z,89.20
2018-04-22T02:20:44.041Z,88.80
2018-04-22T02:23:11.746Z,88.80
2018-04-22T02:25:39.489Z,88.60
2018-04-22T02:28:07.379Z,88.50
2018-04-22T02:30:35.126Z,88.60
2018-04-22T02:33:02.897Z,88.10
2018-04-22T02:35:31.380Z,87.60
2018-04-22T02:37:59.272Z,87.20
2018-04-22T02:40:27.012Z,86.90
2018-04-22T02:42:54.798Z,86.60
2018-04-22T02:45:23.318Z,86.30
2018-04-22T02:47:51.812Z,85.20
2018-04-22T02:50:19.597Z,85.20
2018-04-22T02:52:47.305Z,85.10
2018-04-22T02:55:15.048Z,85.10
2018-04-22T02:57:42.768Z,85.40
2018-04-22T03:00:10.561Z,85.80
2018-04-22T03:02:39.033Z,86.60
2018-04-22T03:05:07.614Z,87.10
2018-04-22T03:07:35.296Z,87.10
2018-04-22T03:10:03.833Z,87.80
2018-04-22T03:12:31.547Z,87.80
2018-04-22T03:14:59.332Z,88.40
2018-04-22T03:17:27.078Z,88.80
2018-04-22T03:19:55.589Z,89.20
2018-04-22T03:22:23.369Z,89.20
2018-04-22T03:24:51.202Z,89.60
2018-04-22T03:27:19.096Z,90.00
2018-04-22T03:29:47.640Z,90.10
2018-04-22T03:32:16.168Z,90.30
2018-04-22T03:34:43.953Z,90.30
2018-04-22T03:37:12.431Z,90.30
2018-04-22T03:39:40.227Z,90.30
2018-04-22T03:42:07.940Z,90.40
2018-04-22T03:44:35.945Z,90.60
2018-04-22T03:47:03.657Z,90.70
2018-04-22T03:49:32.208Z,91.30
2018-04-22T03:52:00.080Z,91.20
2018-04-22T03:54:27.931Z,91.40
2018-04-22T03:56:55.669Z,91.40
2018-04-22T03:59:24.324Z,91.60
2018-04-22T04:01:52.980Z,91.50
2018-04-22T04:04:20.760Z,91.50
2018-04-22T04:06:48.517Z,91.60
2018-04-22T04:09:16.246Z,91.90
2018-04-22T04:11:44.028Z,92.10
2018-04-22T04:14:11.763Z,92.30
2018-04-22T04:16:39.506Z,92.40
2018-04-22T04:19:19.154Z,92.60
2018-04-22T04:21:58.799Z,92.60
2018-04-22T04:24:39.203Z,92.80
2018-04-22T04:27:18.734Z,93.00
2018-04-22T04:29:46.509Z,93.10
2018-04-22T04:32:14.241Z,93.20
2018-04-22T04:34:42.049Z,93.40
2018-04-22T04:37:10.501Z,93.70
2018-04-22T04:39:38.983Z,94.00
2018-04-22T04:42:07.522Z,94.10
2018-04-22T04:44:35.282Z,94.00
2018-04-22T04:47:03.067Z,94.10
2018-04-22T04:49:30.849Z,94.30
2018-04-22T04:51:58.677Z,94.50
2018-04-22T04:54:26.479Z,94.40
2018-04-22T05:02:01.775Z,94.40
2018-04-22T05:04:29.585Z,94.60
2018-04-22T05:06:57.303Z,94.80
2018-04-22T05:09:25.029Z,94.80
2018-04-22T05:11:52.817Z,94.80
2018-04-22T05:14:20.553Z,94.80
2018-04-22T05:16:48.354Z,94.80
2018-04-22T05:19:16.096Z,94.80
2018-04-22T05:21:43.823Z,94.80
2018-04-22T05:24:12.338Z,94.70
2018-04-22T05:26:40.029Z,94.70
2018-04-22T05:29:07.761Z,94.70
2018-04-22T05:31:35.540Z,94.60
2018-04-22T05:34:03.307Z,94.70
2018-04-22T05:36:31.040Z,94.80
2018-04-22T05:38:58.819Z,94.90
2018-04-22T05:41:27.333Z,94.90
2018-04-22T05:43:55.097Z,94.80
2018-04-22T05:46:24.859Z,94.80
2018-04-22T05:48:52.588Z,94.70
2018-04-22T05:51:20.345Z,94.60
2018-04-22T05:53:48.066Z,94.50
2018-04-22T05:56:15.799Z,94.40
2018-04-22T05:58:43.543Z,94.40
2018-04-22T06:01:11.294Z,94.00
2018-04-22T06:03:39.061Z,93.80
2018-04-22T06:06:06.805Z,93.50
2018-04-22T06:08:35.320Z,92.80
2018-04-22T06:11:03.095Z,92.70
2018-04-22T06:13:30.845Z,92.40
2018-04-22T06:15:58.671Z,92.40
2018-04-22T06:18:26.438Z,91.90
2018-04-22T06:20:54.182Z,91.70
2018-04-22T06:23:21.945Z,91.60
2018-04-22T06:25:49.664Z,91.50
2018-04-22T06:28:17.452Z,91.10
2018-04-22T06:30:45.157Z,90.80
2018-04-22T06:33:12.910Z,90.80
2018-04-22T06:35:40.661Z,90.60
2018-04-22T06:38:08.410Z,90.40
2018-04-22T06:40:36.154Z,90.10
2018-04-22T06:43:03.936Z,89.70
2018-04-22T06:45:31.753Z,89.40
2018-04-22T06:47:59.579Z,88.60
2018-04-22T06:50:28.241Z,88.10
2018-04-22T06:53:00.184Z,88.10
2018-04-22T06:55:27.993Z,87.20
2018-04-22T06:57:55.795Z,86.90
2018-04-22T07:00:23.923Z,84.70
2018-04-22T07:02:53.296Z,83.50
2018-04-22T07:05:21.981Z,83.00
2018-04-22T07:07:51.229Z,83.30
2018-04-22T07:10:19.856Z,84.30
2018-04-22T07:12:47.672Z,84.40
2018-04-22T07:15:15.502Z,84.70
2018-04-22T07:17:43.196Z,85.00
2018-04-22T07:20:11.057Z,84.90
2018-04-22T07:22:38.793Z,84.80
2018-04-22T07:25:07.353Z,85.60
2018-04-22T07:27:35.323Z,85.70
2018-04-22T07:30:03.963Z,85.30
2018-04-22T07:32:31.826Z,85.20
2018-04-22T07:34:59.650Z,87.00
2018-04-22T07:37:27.623Z,88.40
2018-04-22T07:39:55.496Z,88.40
2018-04-22T07:42:23.577Z,87.00
2018-04-22T07:44:51.346Z,85.20
2018-04-22T07:47:20.061Z,84.20
2018-04-22T07:49:47.935Z,83.80
2018-04-22T07:52:16.530Z,82.80
2018-04-22T07:54:44.776Z,83.00
2018-04-22T07:57:12.774Z,82.90
2018-04-22T07:59:40.699Z,82.40
2018-04-22T08:02:08.585Z,82.90
2018-04-22T08:04:36.357Z,83.00
2018-04-22T08:07:04.281Z,84.30
2018-04-22T08:09:32.909Z,84.50
2018-04-22T08:12:00.972Z,84.50
2018-04-22T08:14:29.023Z,84.00
2018-04-22T08:16:56.837Z,85.40
2018-04-22T08:19:25.568Z,87.40
2018-04-22T08:21:53.414Z,87.30
2018-04-22T08:24:21.307Z,88.40
2018-04-22T08:26:49.951Z,87.60
2018-04-22T08:29:17.849Z,87.60
2018-04-22T08:31:45.585Z,86.90
2018-04-22T08:34:13.405Z,88.20
2018-04-22T08:36:41.170Z,85.70
2018-04-22T08:39:09.206Z,86.60
2018-04-22T08:41:36.966Z,86.90
2018-04-22T08:44:04.714Z,86.90
2018-04-22T08:46:32.472Z,85.90
2018-04-22T08:49:03.193Z,84.60
2018-04-22T08:51:31.042Z,84.60
2018-04-22T08:53:58.763Z,86.10
2018-04-22T08:56:27.214Z,85.20
2018-04-22T08:58:55.785Z,79.70
2018-04-22T09:01:23.511Z,79.00
2018-04-22T09:03:51.213Z,77.60
2018-04-22T09:06:19.006Z,77.30
2018-04-22T09:08:46.762Z,76.30
2018-04-22T09:11:14.644Z,74.60
2018-04-22T09:13:43.134Z,77.30
2018-04-22T09:16:11.040Z,77.30
2018-04-22T09:18:38.850Z,75.70
2018-04-22T09:21:07.383Z,76.30
2018-04-22T09:23:35.116Z,76.10
2018-04-22T09:26:03.620Z,73.10
2018-04-22T09:28:31.393Z,73.10
2018-04-22T09:30:59.229Z,72.70
2018-04-22T09:33:26.989Z,70.40
2018-04-22T09:35:54.744Z,70.90
2018-04-22T09:38:22.471Z,68.80
2018-04-22T09:40:50.213Z,65.80
2018-04-22T09:43:18.740Z,61.20
2018-04-22T09:45:46.457Z,61.20
2018-04-22T09:48:14.921Z,58.80
2018-04-22T09:50:42.658Z,58.70
2018-04-22T09:53:10.360Z,57.00
2018-04-22T09:55:38.189Z,55.20
2018-04-22T09:58:05.900Z,53.40
2018-04-22T10:00:34.477Z,52.00
2018-04-22T10:03:07.536Z,52.00
2018-04-22T10:05:41.758Z,52.20
2018-04-22T10:08:09.524Z,52.20
2018-04-22T10:10:37.251Z,52.40
2018-04-22T10:13:05.004Z,52.10
2018-04-22T10:15:33.528Z,51.40
2018-04-22T10:18:01.222Z,51.30
2018-04-22T10:20:28.982Z,51.60
2018-04-22T10:22:56.686Z,50.80
2018-04-22T10:25:25.216Z,49.60
2018-04-22T10:27:52.913Z,49.60
2018-04-22T10:30:20.669Z,49.20
2018-04-22T10:32:48.505Z,50.50
2018-04-22T10:35:16.260Z,49.50
2018-04-22T10:37:44.004Z,50.30
2018-04-22T10:40:11.827Z,49.20
2018-04-22T10:42:39.578Z,48.90
2018-04-22T10:45:07.359Z,48.80
2018-04-22T10:47:35.115Z,48.40
2018-04-22T10:50:02.813Z,50.20
2018-04-22T10:52:30.590Z,51.20
2018-04-22T10:54:58.321Z,50.60
2018-04-22T10:57:26.064Z,48.00
2018-04-22T10:59:54.004Z,46.40
2018-04-22T11:02:22.000Z,46.40
2018-04-22T11:04:50.023Z,44.10
2018-04-22T11:07:17.841Z,45.00
2018-04-22T11:09:45.683Z,45.40
2018-04-22T11:12:13.457Z,45.10
2018-04-22T11:14:41.969Z,45.70
2018-04-22T11:17:09.868Z,45.60
2018-04-22T11:19:37.589Z,45.20
2018-04-22T11:22:06.199Z,45.60
2018-04-22T11:24:34.701Z,45.70
2018-04-22T11:27:02.445Z,45.60
2018-04-22T11:29:30.398Z,45.50
2018-04-22T11:31:58.924Z,46.40
2018-04-22T11:34:26.631Z,46.40
2018-04-22T11:36:54.401Z,47.10
2018-04-22T11:39:22.102Z,47.10
2018-04-22T11:41:49.808Z,47.30
2018-04-22T11:44:17.540Z,46.70
2018-04-22T11:46:45.512Z,45.40
2018-04-22T11:49:13.267Z,45.30
2018-04-22T11:51:41.041Z,45.30
2018-04-22T11:54:10.637Z,45.70
2018-04-22T11:56:38.341Z,46.40
2018-04-22T11:59:06.108Z,46.70
2018-04-22T12:01:33.833Z,46.90
2018-04-22T12:04:01.577Z,48.00
2018-04-22T12:06:29.326Z,47.80
2018-04-22T12:08:58.035Z,48.40
2018-04-22T12:11:25.893Z,48.00
2018-04-22T12:13:53.734Z,48.60
2018-04-22T12:16:21.512Z,48.90
2018-04-22T12:18:49.220Z,47.90
2018-04-22T12:21:17.766Z,44.50
2018-04-22T12:23:45.474Z,44.50
2018-04-22T12:26:13.209Z,43.50
2018-04-22T12:28:40.917Z,43.10
2018-04-22T12:31:08.659Z,41.50
2018-04-22T12:33:36.408Z,41.20
2018-04-22T12:36:04.266Z,41.80
2018-04-22T12:38:32.575Z,40.40
2018-04-22T12:41:00.383Z,41.10
2018-04-22T12:43:28.188Z,37.50
2018-04-22T12:45:55.983Z,36.80
2018-04-22T12:48:24.489Z,35.10
2018-04-22T12:50:52.293Z,35.10
2018-04-22T12:53:20.797Z,35.40
2018-04-22T12:55:48.567Z,35.30
2018-04-22T12:58:16.334Z,35.40
2018-04-22T13:00:45.876Z,33.40
2018-04-22T13:03:14.727Z,33.40
2018-04-22T13:05:42.494Z,33.40
2018-04-22T13:08:10.243Z,34.40
2018-04-22T13:10:38.022Z,34.80
2018-04-22T13:13:06.366Z,33.50
2018-04-22T13:15:34.186Z,32.10
2018-04-22T13:18:01.932Z,31.70
2018-04-22T13:20:29.767Z,33.10
2018-04-22T13:22:58.486Z,33.80
2018-04-22T13:25:26.258Z,35.10
2018-04-22T13:27:54.049Z,35.60
2018-04-22T13:30:21.792Z,36.50
2018-04-22T13:32:49.533Z,37.00
2018-04-22T13:35:17.360Z,37.60
2018-04-22T13:37:45.162Z,39.00
2018-04-22T13:40:12.894Z,39.40
2018-04-22T13:42:40.699Z,40.40
2018-04-22T13:45:08.565Z,41.20
2018-04-22T13:47:37.282Z,41.80
2018-04-22T13:50:05.243Z,43.00
2018-04-22T13:52:33.145Z,43.60
2018-04-22T13:55:00.890Z,43.80
2018-04-22T13:57:28.581Z,44.00
2018-04-22T13:59:56.349Z,43.20
2018-04-22T14:02:24.100Z,42.40
2018-04-22T14:04:51.847Z,41.70
2018-04-22T14:07:19.735Z,43.70
2018-04-22T14:09:47.477Z,46.90
2018-04-22T14:12:15.212Z,48.30
2018-04-22T14:14:43.722Z,50.50
2018-04-22T14:17:11.486Z,50.50
2018-04-22T14:19:39.321Z,52.10
2018-04-22T14:22:07.809Z,52.00
2018-04-22T14:24:36.456Z,51.60
2018-04-22T14:27:04.996Z,53.50
2018-04-22T14:29:33.460Z,53.80
2018-04-22T14:32:01.973Z,56.30
2018-04-22T14:34:29.712Z,56.10
2018-04-22T14:36:57.472Z,55.00
2018-04-22T14:39:25.265Z,55.60
2018-04-22T14:41:53.040Z,56.20
2018-04-22T14:44:32.455Z,57.30
2018-04-22T14:47:00.966Z,61.10
2018-04-22T14:49:28.681Z,61.10
2018-04-22T14:51:56.432Z,59.70
2018-04-22T14:54:24.152Z,62.10
2018-04-22T14:56:52.681Z,66.40
2018-04-22T14:59:20.470Z,66.40
2018-04-22T15:01:48.238Z,68.70
2018-04-22T15:04:16.040Z,70.70
2018-04-22T15:06:43.793Z,74.60
2018-04-22T15:09:11.627Z,77.70
2018-04-22T15:11:39.429Z,79.90
2018-04-22T15:14:07.219Z,80.90
2018-04-22T15:16:34.921Z,82.50
2018-04-22T15:19:02.704Z,82.40
2018-04-22T15:21:30.572Z,82.30
2018-04-22T15:23:59.163Z,82.70
2018-04-22T15:26:26.982Z,82.70
2018-04-22T15:28:54.844Z,82.30
2018-04-22T15:31:23.523Z,83.30
2018-04-22T15:33:51.485Z,83.30
2018-04-22T15:36:19.269Z,82.50
2018-04-22T15:38:47.769Z,81.90
2018-04-22T15:41:15.481Z,81.80
2018-04-22T15:43:43.263Z,80.30
2018-04-22T15:46:11.106Z,80.60
2018-04-22T15:48:38.854Z,78.50
2018-04-22T15:51:06.691Z,75.90
2018-04-22T15:53:35.222Z,66.50
2018-04-22T15:56:02.991Z,66.30
2018-04-22T15:58:30.706Z,67.00
2018-04-22T16:00:59.263Z,56.30
2018-04-22T16:03:26.981Z,56.10
2018-04-22T16:05:54.816Z,55.90
2018-04-22T16:08:22.673Z,54.90
2018-04-22T16:10:50.411Z,52.80
2018-04-22T16:13:18.129Z,50.80
2018-04-22T16:15:46.784Z,51.00
2018-04-22T16:18:19.280Z,51.00
2018-04-22T16:20:47.230Z,50.90
2018-04-22T16:23:15.064Z,51.70
2018-04-22T16:25:43.153Z,50.10
2018-04-22T16:28:10.917Z,49.90
2018-04-22T16:30:38.661Z,51.60
2018-04-22T16:33:07.213Z,51.30
2018-04-22T16:35:35.040Z,53.50
2018-04-22T16:38:03.058Z,54.30
2018-04-22T16:40:30.920Z,53.70
2018-04-22T16:42:58.651Z,52.60
2018-04-22T16:45:27.088Z,53.00
2018-04-22T16:47:55.236Z,53.80
2018-04-22T16:50:23.384Z,54.90
2018-04-22T16:52:51.142Z,56.20
2018-04-22T16:55:18.901Z,55.80
2018-04-22T16:57:46.913Z,54.10
2018-04-22T17:00:14.629Z,52.70
2018-04-22T17:02:42.448Z,52.70
2018-04-22T17:05:10.189Z,53.50
2018-04-22T17:07:37.983Z,55.90
2018-04-22T17:10:05.840Z,57.30
2018-04-22T17:12:34.174Z,59.20
2018-04-22T17:15:01.938Z,62.60
2018-04-22T17:17:30.447Z,62.20
2018-04-22T17:19:58.181Z,61.50
2018-04-22T17:22:26.661Z,61.40
2018-04-22T17:24:55.161Z,59.70
2018-04-22T17:27:23.657Z,57.30
2018-04-22T17:29:51.483Z,57.30
2018-04-22T17:32:19.273Z,55.60
2018-04-22T17:34:47.333Z,54.80
2018-04-22T17:37:15.077Z,54.50
2018-04-22T17:39:42.888Z,53.20
2018-04-22T17:42:10.578Z,53.30
2018-04-22T17:44:38.327Z,53.60
2018-04-22T17:47:06.045Z,52.20
2018-04-22T17:49:33.787Z,50.80
2018-04-22T17:52:01.547Z,51.40
2018-04-22T17:54:29.336Z,50.30
2018-04-22T17:56:57.115Z,50.40
2018-04-22T17:59:24.899Z,48.20
2018-04-22T18:01:52.612Z,49.10
2018-04-22T18:04:20.316Z,48.00
2018-04-22T18:06:48.124Z,48.00
2018-04-22T18:09:15.825Z,47.00
2018-04-22T18:11:43.624Z,46.60
2018-04-22T18:14:11.454Z,48.50
2018-04-22T18:16:39.193Z,47.80
2018-04-22T18:19:06.914Z,47.80
2018-04-22T18:21:34.625Z,47.40
2018-04-22T18:24:02.384Z,47.20
2018-04-22T18:26:30.877Z,48.10
2018-04-22T18:28:58.593Z,48.10
2018-04-22T18:31:26.333Z,48.90
2018-04-22T18:33:54.045Z,49.30
2018-04-22T18:36:21.873Z,50.50
2018-04-22T18:38:49.617Z,50.70
2018-04-22T18:41:17.315Z,52.40
2018-04-22T18:43:45.066Z,52.20
2018-04-22T18:46:12.797Z,53.60
2018-04-22T18:48:40.542Z,54.70
2018-04-22T18:51:08.282Z,55.80
2018-04-22T18:53:36.206Z,56.30
2018-04-22T18:56:03.972Z,56.50
2018-04-22T18:58:32.516Z,62.20
2018-04-22T19:01:00.381Z,62.20
2018-04-22T19:03:28.109Z,64.40
2018-04-22T19:05:55.925Z,66.60
2018-04-22T19:08:23.661Z,68.30
2018-04-22T19:10:51.448Z,70.20
2018-04-22T19:13:19.185Z,72.70
2018-04-22T19:15:46.932Z,76.70
2018-04-22T19:18:14.748Z,80.00
2018-04-22T19:20:42.441Z,83.00
2018-04-22T19:23:10.514Z,84.80
2018-04-22T19:25:38.289Z,86.40
2018-04-22T19:28:08.994Z,88.80
2018-04-22T19:30:37.505Z,89.90
2018-04-22T19:33:05.209Z,89.70
2018-04-22T19:35:33.725Z,90.50
2018-04-22T19:38:01.427Z,90.50
2018-04-22T19:40:29.189Z,90.80
2018-04-22T19:42:57.896Z,91.30
2018-04-22T19:45:26.346Z,91.70
2018-04-22T19:47:54.861Z,92.10
2018-04-22T19:50:23.358Z,92.30
2018-04-22T19:52:51.107Z,92.30
2018-04-22T19:55:19.653Z,92.50
2018-04-22T19:57:47.353Z,92.50
2018-04-22T20:00:15.872Z,93.40
2018-04-22T20:02:43.590Z,93.40
2018-04-22T20:05:11.369Z,93.50
2018-04-22T20:07:40.021Z,93.90
2018-04-22T20:10:07.749Z,93.90
2018-04-22T20:12:35.475Z,93.90
2018-04-22T20:15:03.229Z,93.90
2018-04-22T20:17:30.987Z,94.00
2018-04-22T20:19:58.731Z,94.00
2018-04-22T20:22:26.923Z,93.40
2018-04-22T20:24:54.737Z,93.40
2018-04-22T20:27:22.893Z,93.50
2018-04-22T20:29:50.679Z,93.20
2018-04-22T20:32:18.563Z,93.00
2018-04-22T20:34:47.055Z,93.20
2018-04-22T20:37:15.593Z,93.00
2018-04-22T20:39:43.337Z,93.10
2018-04-22T20:42:11.723Z,93.00
2018-04-22T20:44:39.465Z,93.30
2018-04-22T20:47:07.160Z,93.10
2018-04-22T20:49:34.988Z,93.20
2018-04-22T20:52:02.730Z,93.30
2018-04-22T20:54:30.476Z,93.50
2018-04-22T20:56:58.274Z,93.30
2018-04-22T20:59:26.413Z,93.30
2018-04-22T21:01:54.205Z,93.30
2018-04-22T21:04:22.173Z,93.30
2018-04-22T21:06:49.973Z,93.30
2018-04-22T21:09:17.730Z,93.10
2018-04-22T21:11:46.829Z,92.80
2018-04-22T21:14:14.666Z,92.80
2018-04-22T21:16:42.440Z,92.90
2018-04-22T21:19:10.390Z,92.90
2018-04-22T21:21:38.925Z,93.30
2018-04-22T21:24:07.441Z,93.30
2018-04-22T21:26:35.309Z,93.30
2018-04-22T21:29:03.145Z,93.50
2018-04-22T21:31:31.664Z,93.30
2018-04-22T21:33:59.543Z,93.20
2018-04-22T21:36:27.358Z,93.20
2018-04-22T21:38:55.207Z,93.20
2018-04-22T21:41:23.774Z,93.70
2018-04-22T21:43:51.526Z,93.30
2018-04-22T21:46:19.238Z,93.30
2018-04-22T21:48:47.005Z,93.60
2018-04-22T21:51:14.799Z,93.40
2018-04-22T21:53:43.323Z,93.40
2018-04-22T21:56:11.249Z,93.40
2018-04-22T21:58:39.928Z,93.40
2018-04-22T22:01:07.721Z,93.40
2018-04-22T22:03:35.459Z,93.70
2018-04-22T22:06:04.949Z,93.90
2018-04-22T22:08:32.681Z,93.90
2018-04-22T22:11:00.426Z,93.80
2018-04-22T22:13:28.256Z,93.90
2018-04-22T22:18:31.738Z,93.50
2018-04-22T22:20:59.481Z,93.50
2018-04-22T22:23:27.236Z,93.60
2018-04-22T22:25:55.721Z,93.60
2018-04-22T22:28:24.239Z,92.90
2018-04-22T22:30:51.949Z,92.80
2018-04-22T22:33:20.071Z,93.40
2018-04-22T22:35:47.833Z,93.40
2018-04-22T22:38:17.579Z,93.30
2018-04-22T22:40:45.409Z,94.10
2018-04-22T22:43:13.149Z,94.30
2018-04-22T22:45:40.897Z,94.50
2018-04-22T22:48:08.953Z,94.70
2018-04-22T22:50:36.992Z,94.80
2018-04-22T22:53:05.584Z,94.80
2018-04-22T22:55:33.376Z,94.70
2018-04-22T22:58:01.132Z,94.50
2018-04-22T23:00:28.948Z,94.30
2018-04-22T23:02:56.816Z,93.90
2018-04-22T23:05:24.584Z,94.50
2018-04-22T23:07:52.366Z,93.40
2018-04-22T23:10:20.178Z,93.20
2018-04-22T23:12:48.045Z,93.30
2018-04-22T23:15:15.914Z,92.90
2018-04-22T23:17:44.351Z,92.70
2018-04-22T23:20:13.712Z,93.00
2018-04-22T23:22:41.590Z,92.90
2018-04-22T23:25:09.372Z,92.80
2018-04-22T23:27:37.393Z,93.60
2018-04-22T23:30:06.535Z,93.70
2018-04-22T23:32:34.531Z,93.70
2018-04-22T23:35:02.229Z,93.90
2018-04-22T23:37:30.139Z,93.90
2018-04-22T23:39:57.937Z,93.70
2018-04-22T23:42:26.456Z,93.70
2018-04-22T23:44:54.206Z,93.70
2018-04-22T23:47:21.980Z,93.80
2018-04-22T23:49:49.669Z,93.30
2018-04-22T23:52:18.121Z,93.40
2018-04-22T23:54:46.885Z,93.10
2018-04-22T23:57:14.620Z,93.10
2018-04-22T23:59:42.373Z,93.30
